Banzae, Brazil
Current Conditions -  °F | °C
As of 8:00 AM on Monday 22 Dec 2014 (Local Time) from SBUF Reporting Station
Scattered Clouds Scattered Clouds  
Wind Chill: 82°   Ceiling: Unl
Heat Index: 86°   Visibility: 6mi
Dew Point: 70°   Wind: 9mph
Humidity: 66%   Direction: 90°E
Pressure: 30"   Gusts: NA
Location:  10.58°S, 38.61°W
Report Text: SBUF 221100Z 09008KT 9999 SCT018 28/21 Q1016
Loading
Personal Weather Stations






























Interactive Weather Map New forecast layout! Learn more

10-Day Weather Forecast

Advertisements
Track Severe Weather on mobile